sensor_id;sensor_type;location;lat;lon;timestamp;P1;durP1;ratioP1;P2;durP2;ratioP2
34144;SDS011;20422;53.014;8.886;2022-08-21T00:02:25;7.43;;;2.47;;
34144;SDS011;20422;53.014;8.886;2022-08-21T00:04:53;7.07;;;2.78;;
34144;SDS011;20422;53.014;8.886;2022-08-21T00:07:19;6.95;;;2.20;;
34144;SDS011;20422;53.014;8.886;2022-08-21T00:09:45;7.18;;;2.42;;
34144;SDS011;20422;53.014;8.886;2022-08-21T00:12:11;9.27;;;2.83;;
34144;SDS011;20422;53.014;8.886;2022-08-21T00:14:36;18.98;;;2.85;;
34144;SDS011;20422;53.014;8.886;2022-08-21T00:17:03;7.50;;;2.15;;
34144;SDS011;20422;53.014;8.886;2022-08-21T00:19:30;5.70;;;2.25;;
34144;SDS011;20422;53.014;8.886;2022-08-21T00:21:56;5.35;;;2.55;;
34144;SDS011;20422;53.014;8.886;2022-08-21T00:24:22;6.82;;;2.38;;
34144;SDS011;20422;53.014;8.886;2022-08-21T00:26:48;6.28;;;3.40;;
34144;SDS011;20422;53.014;8.886;2022-08-21T00:29:15;7.63;;;2.53;;
34144;SDS011;20422;53.014;8.886;2022-08-21T00:31:41;6.15;;;2.83;;
34144;SDS011;20422;53.014;8.886;2022-08-21T00:34:08;4.95;;;2.38;;
34144;SDS011;20422;53.014;8.886;2022-08-21T00:36:34;12.55;;;2.70;;
34144;SDS011;20422;53.014;8.886;2022-08-21T00:39:00;5.57;;;2.75;;
34144;SDS011;20422;53.014;8.886;2022-08-21T00:41:26;11.13;;;2.67;;
34144;SDS011;20422;53.014;8.886;2022-08-21T00:43:52;7.82;;;2.40;;
34144;SDS011;20422;53.014;8.886;2022-08-21T00:46:18;9.32;;;2.53;;
34144;SDS011;20422;53.014;8.886;2022-08-21T00:48:44;10.48;;;2.38;;
34144;SDS011;20422;53.014;8.886;2022-08-21T00:51:13;6.05;;;2.80;;
34144;SDS011;20422;53.014;8.886;2022-08-21T00:53:53;9.93;;;2.90;;
34144;SDS011;20422;53.014;8.886;2022-08-21T00:56:22;5.05;;;2.35;;
34144;SDS011;20422;53.014;8.886;2022-08-21T00:58:48;9.82;;;2.15;;
34144;SDS011;20422;53.014;8.886;2022-08-21T01:01:14;9.45;;;2.80;;
34144;SDS011;20422;53.014;8.886;2022-08-21T01:03:40;8.18;;;2.80;;
34144;SDS011;20422;53.014;8.886;2022-08-21T01:06:06;8.80;;;2.88;;
34144;SDS011;20422;53.014;8.886;2022-08-21T01:08:32;6.28;;;2.60;;
34144;SDS011;20422;53.014;8.886;2022-08-21T01:10:58;7.53;;;2.65;;
34144;SDS011;20422;53.014;8.886;2022-08-21T01:13:26;7.88;;;2.78;;
34144;SDS011;20422;53.014;8.886;2022-08-21T01:15:55;7.80;;;2.55;;
34144;SDS011;20422;53.014;8.886;2022-08-21T01:18:24;8.55;;;2.92;;
34144;SDS011;20422;53.014;8.886;2022-08-21T01:21:12;7.38;;;2.70;;
34144;SDS011;20422;53.014;8.886;2022-08-21T01:23:38;8.18;;;2.90;;
34144;SDS011;20422;53.014;8.886;2022-08-21T01:26:07;6.95;;;3.28;;
34144;SDS011;20422;53.014;8.886;2022-08-21T01:28:35;6.13;;;2.30;;
34144;SDS011;20422;53.014;8.886;2022-08-21T01:31:06;7.97;;;3.08;;
34144;SDS011;20422;53.014;8.886;2022-08-21T01:33:33;5.25;;;2.97;;
34144;SDS011;20422;53.014;8.886;2022-08-21T01:35:59;11.23;;;3.65;;
34144;SDS011;20422;53.014;8.886;2022-08-21T01:38:24;6.55;;;3.05;;
34144;SDS011;20422;53.014;8.886;2022-08-21T01:40:51;14.68;;;3.03;;
34144;SDS011;20422;53.014;8.886;2022-08-21T01:43:16;5.75;;;2.78;;
34144;SDS011;20422;53.014;8.886;2022-08-21T01:45:42;9.82;;;3.65;;
34144;SDS011;20422;53.014;8.886;2022-08-21T01:48:07;12.48;;;3.85;;
34144;SDS011;20422;53.014;8.886;2022-08-21T01:50:33;8.27;;;2.97;;
34144;SDS011;20422;53.014;8.886;2022-08-21T01:52:58;10.52;;;3.95;;
34144;SDS011;20422;53.014;8.886;2022-08-21T01:55:23;11.27;;;3.95;;
34144;SDS011;20422;53.014;8.886;2022-08-21T01:57:49;10.38;;;3.47;;
34144;SDS011;20422;53.014;8.886;2022-08-21T02:00:16;9.85;;;3.78;;
34144;SDS011;20422;53.014;8.886;2022-08-21T02:02:44;16.87;;;3.77;;
34144;SDS011;20422;53.014;8.886;2022-08-21T02:05:10;5.72;;;3.08;;
34144;SDS011;20422;53.014;8.886;2022-08-21T02:07:41;5.47;;;2.92;;
34144;SDS011;20422;53.014;8.886;2022-08-21T02:10:09;7.22;;;3.20;;
34144;SDS011;20422;53.014;8.886;2022-08-21T02:12:36;9.55;;;3.15;;
34144;SDS011;20422;53.014;8.886;2022-08-21T02:15:02;6.82;;;3.47;;
34144;SDS011;20422;53.014;8.886;2022-08-21T02:17:36;13.20;;;3.42;;
34144;SDS011;20422;53.014;8.886;2022-08-21T02:20:07;7.65;;;3.20;;
34144;SDS011;20422;53.014;8.886;2022-08-21T02:22:34;9.70;;;3.35;;
34144;SDS011;20422;53.014;8.886;2022-08-21T02:24:59;15.38;;;3.10;;
34144;SDS011;20422;53.014;8.886;2022-08-21T02:27:25;8.63;;;4.00;;
34144;SDS011;20422;53.014;8.886;2022-08-21T02:29:50;9.02;;;3.58;;
34144;SDS011;20422;53.014;8.886;2022-08-21T02:32:16;6.30;;;3.60;;
34144;SDS011;20422;53.014;8.886;2022-08-21T02:34:41;9.40;;;3.40;;
34144;SDS011;20422;53.014;8.886;2022-08-21T02:37:06;7.10;;;3.42;;
34144;SDS011;20422;53.014;8.886;2022-08-21T02:39:32;7.78;;;3.58;;
34144;SDS011;20422;53.014;8.886;2022-08-21T02:41:57;7.72;;;3.72;;
34144;SDS011;20422;53.014;8.886;2022-08-21T02:44:22;8.57;;;3.30;;
34144;SDS011;20422;53.014;8.886;2022-08-21T02:46:48;10.35;;;3.60;;
34144;SDS011;20422;53.014;8.886;2022-08-21T02:49:13;5.68;;;3.05;;
34144;SDS011;20422;53.014;8.886;2022-08-21T02:51:39;5.20;;;2.97;;
34144;SDS011;20422;53.014;8.886;2022-08-21T02:54:04;10.40;;;3.85;;
34144;SDS011;20422;53.014;8.886;2022-08-21T02:56:30;10.40;;;4.28;;
34144;SDS011;20422;53.014;8.886;2022-08-21T02:58:55;13.48;;;4.43;;
34144;SDS011;20422;53.014;8.886;2022-08-21T03:01:20;10.52;;;4.00;;
34144;SDS011;20422;53.014;8.886;2022-08-21T03:03:47;18.80;;;3.70;;
34144;SDS011;20422;53.014;8.886;2022-08-21T03:06:14;8.82;;;3.40;;
34144;SDS011;20422;53.014;8.886;2022-08-21T03:08:41;9.25;;;3.95;;
34144;SDS011;20422;53.014;8.886;2022-08-21T03:11:06;7.57;;;3.47;;
34144;SDS011;20422;53.014;8.886;2022-08-21T03:13:32;4.40;;;3.15;;
34144;SDS011;20422;53.014;8.886;2022-08-21T03:15:58;12.25;;;3.22;;
34144;SDS011;20422;53.014;8.886;2022-08-21T03:18:24;7.85;;;3.05;;
34144;SDS011;20422;53.014;8.886;2022-08-21T03:20:49;8.43;;;3.67;;
34144;SDS011;20422;53.014;8.886;2022-08-21T03:23:15;7.35;;;3.17;;
34144;SDS011;20422;53.014;8.886;2022-08-21T03:25:42;9.85;;;4.18;;
34144;SDS011;20422;53.014;8.886;2022-08-21T03:28:09;6.32;;;3.75;;
34144;SDS011;20422;53.014;8.886;2022-08-21T03:33:02;7.15;;;3.58;;
34144;SDS011;20422;53.014;8.886;2022-08-21T03:35:28;14.98;;;3.97;;
34144;SDS011;20422;53.014;8.886;2022-08-21T03:37:54;6.72;;;3.45;;
34144;SDS011;20422;53.014;8.886;2022-08-21T03:40:20;8.82;;;4.45;;
34144;SDS011;20422;53.014;8.886;2022-08-21T03:42:47;9.25;;;3.90;;
34144;SDS011;20422;53.014;8.886;2022-08-21T03:45:13;15.30;;;3.75;;
34144;SDS011;20422;53.014;8.886;2022-08-21T03:47:50;12.05;;;3.35;;
34144;SDS011;20422;53.014;8.886;2022-08-21T03:50:24;17.48;;;4.18;;
34144;SDS011;20422;53.014;8.886;2022-08-21T03:52:50;8.77;;;3.30;;
34144;SDS011;20422;53.014;8.886;2022-08-21T03:55:16;5.85;;;3.17;;
34144;SDS011;20422;53.014;8.886;2022-08-21T03:57:41;7.68;;;3.28;;
34144;SDS011;20422;53.014;8.886;2022-08-21T04:00:07;8.93;;;4.38;;
34144;SDS011;20422;53.014;8.886;2022-08-21T04:02:36;10.35;;;3.55;;
34144;SDS011;20422;53.014;8.886;2022-08-21T04:05:02;6.82;;;3.70;;
34144;SDS011;20422;53.014;8.886;2022-08-21T04:07:27;7.50;;;3.83;;
34144;SDS011;20422;53.014;8.886;2022-08-21T04:09:53;12.00;;;3.22;;
34144;SDS011;20422;53.014;8.886;2022-08-21T04:12:19;5.25;;;3.30;;
34144;SDS011;20422;53.014;8.886;2022-08-21T04:14:45;9.05;;;3.80;;
34144;SDS011;20422;53.014;8.886;2022-08-21T04:17:11;8.02;;;3.25;;
34144;SDS011;20422;53.014;8.886;2022-08-21T04:19:36;6.18;;;3.63;;
34144;SDS011;20422;53.014;8.886;2022-08-21T04:22:01;11.88;;;4.10;;
34144;SDS011;20422;53.014;8.886;2022-08-21T04:24:28;8.15;;;3.50;;
34144;SDS011;20422;53.014;8.886;2022-08-21T04:26:54;10.35;;;3.33;;
34144;SDS011;20422;53.014;8.886;2022-08-21T04:29:19;7.75;;;3.40;;
34144;SDS011;20422;53.014;8.886;2022-08-21T04:31:45;5.20;;;3.40;;
34144;SDS011;20422;53.014;8.886;2022-08-21T04:34:10;8.02;;;4.05;;
34144;SDS011;20422;53.014;8.886;2022-08-21T04:36:35;12.40;;;4.28;;
34144;SDS011;20422;53.014;8.886;2022-08-21T04:39:01;7.47;;;3.67;;
34144;SDS011;20422;53.014;8.886;2022-08-21T04:41:26;10.27;;;3.35;;
34144;SDS011;20422;53.014;8.886;2022-08-21T04:43:52;8.23;;;3.50;;
34144;SDS011;20422;53.014;8.886;2022-08-21T04:46:19;10.35;;;3.78;;
34144;SDS011;20422;53.014;8.886;2022-08-21T04:48:44;10.07;;;3.33;;
34144;SDS011;20422;53.014;8.886;2022-08-21T04:51:15;9.05;;;3.40;;
34144;SDS011;20422;53.014;8.886;2022-08-21T04:53:48;7.45;;;3.75;;
34144;SDS011;20422;53.014;8.886;2022-08-21T04:56:22;9.65;;;4.65;;
34144;SDS011;20422;53.014;8.886;2022-08-21T04:58:52;11.00;;;4.40;;
34144;SDS011;20422;53.014;8.886;2022-08-21T05:01:21;9.65;;;3.50;;
34144;SDS011;20422;53.014;8.886;2022-08-21T05:03:49;7.07;;;3.20;;
34144;SDS011;20422;53.014;8.886;2022-08-21T05:06:18;10.70;;;3.85;;
34144;SDS011;20422;53.014;8.886;2022-08-21T05:08:45;10.13;;;3.92;;
34144;SDS011;20422;53.014;8.886;2022-08-21T05:11:13;8.63;;;3.60;;
34144;SDS011;20422;53.014;8.886;2022-08-21T05:13:39;12.23;;;3.30;;
34144;SDS011;20422;53.014;8.886;2022-08-21T05:16:06;8.05;;;3.30;;
34144;SDS011;20422;53.014;8.886;2022-08-21T05:18:32;6.65;;;3.05;;
34144;SDS011;20422;53.014;8.886;2022-08-21T05:20:58;8.95;;;3.90;;
34144;SDS011;20422;53.014;8.886;2022-08-21T05:23:23;11.15;;;3.25;;
34144;SDS011;20422;53.014;8.886;2022-08-21T05:25:50;6.72;;;3.08;;
34144;SDS011;20422;53.014;8.886;2022-08-21T05:28:17;8.43;;;3.15;;
34144;SDS011;20422;53.014;8.886;2022-08-21T05:30:43;10.27;;;3.25;;
34144;SDS011;20422;53.014;8.886;2022-08-21T05:33:09;7.40;;;2.92;;
34144;SDS011;20422;53.014;8.886;2022-08-21T05:35:35;4.85;;;2.60;;
34144;SDS011;20422;53.014;8.886;2022-08-21T05:38:01;4.07;;;2.75;;
34144;SDS011;20422;53.014;8.886;2022-08-21T05:40:27;8.18;;;2.78;;
34144;SDS011;20422;53.014;8.886;2022-08-21T05:42:53;3.72;;;2.55;;
34144;SDS011;20422;53.014;8.886;2022-08-21T05:45:21;11.85;;;3.13;;
34144;SDS011;20422;53.014;8.886;2022-08-21T05:47:47;7.13;;;2.65;;
34144;SDS011;20422;53.014;8.886;2022-08-21T05:50:12;6.05;;;2.67;;
34144;SDS011;20422;53.014;8.886;2022-08-21T05:52:38;8.82;;;2.65;;
34144;SDS011;20422;53.014;8.886;2022-08-21T05:55:03;7.32;;;2.60;;
34144;SDS011;20422;53.014;8.886;2022-08-21T05:57:29;6.68;;;2.75;;
34144;SDS011;20422;53.014;8.886;2022-08-21T05:59:54;5.35;;;2.60;;
34144;SDS011;20422;53.014;8.886;2022-08-21T06:02:20;7.95;;;2.60;;
34144;SDS011;20422;53.014;8.886;2022-08-21T06:04:46;6.20;;;2.85;;
34144;SDS011;20422;53.014;8.886;2022-08-21T06:07:12;7.32;;;3.03;;
34144;SDS011;20422;53.014;8.886;2022-08-21T06:09:37;7.45;;;2.75;;
34144;SDS011;20422;53.014;8.886;2022-08-21T06:12:06;8.35;;;2.92;;
34144;SDS011;20422;53.014;8.886;2022-08-21T06:14:34;9.55;;;3.38;;
34144;SDS011;20422;53.014;8.886;2022-08-21T06:17:03;9.10;;;2.85;;
34144;SDS011;20422;53.014;8.886;2022-08-21T06:21:55;10.57;;;3.93;;
34144;SDS011;20422;53.014;8.886;2022-08-21T06:24:20;9.32;;;3.00;;
34144;SDS011;20422;53.014;8.886;2022-08-21T06:26:45;9.32;;;3.03;;
34144;SDS011;20422;53.014;8.886;2022-08-21T06:29:12;7.40;;;3.45;;
34144;SDS011;20422;53.014;8.886;2022-08-21T06:31:41;11.10;;;4.22;;
34144;SDS011;20422;53.014;8.886;2022-08-21T06:34:06;8.82;;;4.38;;
34144;SDS011;20422;53.014;8.886;2022-08-21T06:36:31;10.07;;;4.25;;
34144;SDS011;20422;53.014;8.886;2022-08-21T06:38:57;9.50;;;4.03;;
34144;SDS011;20422;53.014;8.886;2022-08-21T06:41:22;7.90;;;3.97;;
34144;SDS011;20422;53.014;8.886;2022-08-21T06:43:47;9.02;;;3.58;;
34144;SDS011;20422;53.014;8.886;2022-08-21T06:46:13;8.65;;;3.92;;
34144;SDS011;20422;53.014;8.886;2022-08-21T06:48:38;11.20;;;3.92;;
34144;SDS011;20422;53.014;8.886;2022-08-21T06:51:03;11.35;;;4.00;;
34144;SDS011;20422;53.014;8.886;2022-08-21T06:53:29;8.27;;;3.75;;
34144;SDS011;20422;53.014;8.886;2022-08-21T06:55:54;19.17;;;5.45;;
34144;SDS011;20422;53.014;8.886;2022-08-21T06:58:20;12.00;;;5.60;;
34144;SDS011;20422;53.014;8.886;2022-08-21T07:00:46;11.75;;;3.90;;
34144;SDS011;20422;53.014;8.886;2022-08-21T07:03:21;10.73;;;4.60;;
34144;SDS011;20422;53.014;8.886;2022-08-21T07:05:48;11.13;;;4.25;;
34144;SDS011;20422;53.014;8.886;2022-08-21T07:08:14;9.95;;;3.63;;
34144;SDS011;20422;53.014;8.886;2022-08-21T07:10:40;8.82;;;4.18;;
34144;SDS011;20422;53.014;8.886;2022-08-21T07:13:06;11.77;;;3.90;;
34144;SDS011;20422;53.014;8.886;2022-08-21T07:15:31;8.88;;;3.58;;
34144;SDS011;20422;53.014;8.886;2022-08-21T07:17:57;7.40;;;3.75;;
34144;SDS011;20422;53.014;8.886;2022-08-21T07:20:23;11.18;;;3.97;;
34144;SDS011;20422;53.014;8.886;2022-08-21T07:22:49;7.63;;;3.53;;
34144;SDS011;20422;53.014;8.886;2022-08-21T07:25:14;9.35;;;3.88;;
34144;SDS011;20422;53.014;8.886;2022-08-21T07:27:41;8.73;;;3.30;;
34144;SDS011;20422;53.014;8.886;2022-08-21T07:30:07;14.48;;;3.78;;
34144;SDS011;20422;53.014;8.886;2022-08-21T07:32:34;12.98;;;3.90;;
34144;SDS011;20422;53.014;8.886;2022-08-21T07:35:00;8.15;;;3.40;;
34144;SDS011;20422;53.014;8.886;2022-08-21T07:37:28;11.43;;;4.38;;
34144;SDS011;20422;53.014;8.886;2022-08-21T07:39:54;13.10;;;3.70;;
34144;SDS011;20422;53.014;8.886;2022-08-21T07:42:22;8.75;;;3.33;;
34144;SDS011;20422;53.014;8.886;2022-08-21T07:44:48;7.65;;;3.05;;
34144;SDS011;20422;53.014;8.886;2022-08-21T07:47:16;9.50;;;3.42;;
34144;SDS011;20422;53.014;8.886;2022-08-21T07:49:43;11.27;;;3.53;;
34144;SDS011;20422;53.014;8.886;2022-08-21T07:52:10;11.95;;;3.38;;
34144;SDS011;20422;53.014;8.886;2022-08-21T07:54:36;6.43;;;2.45;;
34144;SDS011;20422;53.014;8.886;2022-08-21T07:57:02;14.10;;;3.22;;
34144;SDS011;20422;53.014;8.886;2022-08-21T07:59:50;8.43;;;2.97;;
34144;SDS011;20422;53.014;8.886;2022-08-21T08:02:26;11.20;;;2.97;;
34144;SDS011;20422;53.014;8.886;2022-08-21T08:04:57;10.27;;;2.70;;
34144;SDS011;20422;53.014;8.886;2022-08-21T08:07:24;10.60;;;2.40;;
34144;SDS011;20422;53.014;8.886;2022-08-21T08:09:50;7.82;;;2.83;;
34144;SDS011;20422;53.014;8.886;2022-08-21T08:12:15;10.18;;;2.45;;
34144;SDS011;20422;53.014;8.886;2022-08-21T08:14:40;7.93;;;2.78;;
34144;SDS011;20422;53.014;8.886;2022-08-21T08:17:06;6.05;;;2.15;;
34144;SDS011;20422;53.014;8.886;2022-08-21T08:19:31;4.40;;;1.80;;
34144;SDS011;20422;53.014;8.886;2022-08-21T08:21:57;8.93;;;2.25;;
34144;SDS011;20422;53.014;8.886;2022-08-21T08:24:22;10.32;;;2.50;;
34144;SDS011;20422;53.014;8.886;2022-08-21T08:26:47;7.22;;;1.65;;
34144;SDS011;20422;53.014;8.886;2022-08-21T08:29:12;11.40;;;2.53;;
34144;SDS011;20422;53.014;8.886;2022-08-21T08:31:38;7.30;;;2.20;;
34144;SDS011;20422;53.014;8.886;2022-08-21T08:34:03;6.85;;;2.03;;
34144;SDS011;20422;53.014;8.886;2022-08-21T08:36:35;7.50;;;1.88;;
34144;SDS011;20422;53.014;8.886;2022-08-21T08:39:02;7.78;;;1.80;;
34144;SDS011;20422;53.014;8.886;2022-08-21T08:41:29;3.60;;;1.80;;
34144;SDS011;20422;53.014;8.886;2022-08-21T08:43:57;3.95;;;1.58;;
34144;SDS011;20422;53.014;8.886;2022-08-21T08:46:30;5.65;;;1.90;;
34144;SDS011;20422;53.014;8.886;2022-08-21T08:54:47;7.95;;;2.33;;
34144;SDS011;20422;53.014;8.886;2022-08-21T08:57:21;5.28;;;2.20;;
34144;SDS011;20422;53.014;8.886;2022-08-21T08:59:51;5.53;;;1.98;;
34144;SDS011;20422;53.014;8.886;2022-08-21T09:02:21;8.95;;;2.47;;
34144;SDS011;20422;53.014;8.886;2022-08-21T09:04:48;7.47;;;2.55;;
34144;SDS011;20422;53.014;8.886;2022-08-21T09:16:13;8.63;;;2.13;;
34144;SDS011;20422;53.014;8.886;2022-08-21T09:21:53;9.73;;;2.72;;
34144;SDS011;20422;53.014;8.886;2022-08-21T09:27:38;11.63;;;3.00;;
34144;SDS011;20422;53.014;8.886;2022-08-21T09:30:07;8.10;;;2.83;;
34144;SDS011;20422;53.014;8.886;2022-08-21T09:35:11;10.02;;;2.90;;
34144;SDS011;20422;53.014;8.886;2022-08-21T09:40:43;11.93;;;2.95;;
34144;SDS011;20422;53.014;8.886;2022-08-21T09:43:21;8.07;;;2.13;;
34144;SDS011;20422;53.014;8.886;2022-08-21T09:46:20;10.03;;;2.07;;
34144;SDS011;20422;53.014;8.886;2022-08-21T09:48:48;9.77;;;2.58;;
34144;SDS011;20422;53.014;8.886;2022-08-21T09:51:24;11.45;;;2.75;;
34144;SDS011;20422;53.014;8.886;2022-08-21T09:53:54;10.15;;;2.80;;
34144;SDS011;20422;53.014;8.886;2022-08-21T09:59:17;6.88;;;2.08;;
34144;SDS011;20422;53.014;8.886;2022-08-21T10:01:48;9.77;;;2.33;;
34144;SDS011;20422;53.014;8.886;2022-08-21T10:04:15;12.48;;;2.40;;
34144;SDS011;20422;53.014;8.886;2022-08-21T10:06:46;10.50;;;1.95;;
34144;SDS011;20422;53.014;8.886;2022-08-21T10:09:13;5.93;;;2.08;;
34144;SDS011;20422;53.014;8.886;2022-08-21T10:11:41;3.10;;;2.25;;
34144;SDS011;20422;53.014;8.886;2022-08-21T10:14:20;8.57;;;2.22;;
34144;SDS011;20422;53.014;8.886;2022-08-21T10:17:19;10.60;;;3.17;;
34144;SDS011;20422;53.014;8.886;2022-08-21T10:20:02;8.55;;;3.00;;
34144;SDS011;20422;53.014;8.886;2022-08-21T10:25:25;12.38;;;2.00;;
34144;SDS011;20422;53.014;8.886;2022-08-21T10:31:15;7.72;;;2.63;;
34144;SDS011;20422;53.014;8.886;2022-08-21T10:33:56;6.80;;;1.92;;
34144;SDS011;20422;53.014;8.886;2022-08-21T10:36:44;13.55;;;2.75;;
34144;SDS011;20422;53.014;8.886;2022-08-21T10:39:21;10.65;;;2.25;;
34144;SDS011;20422;53.014;8.886;2022-08-21T10:47:16;6.60;;;2.20;;
34144;SDS011;20422;53.014;8.886;2022-08-21T10:49:58;11.02;;;2.25;;
34144;SDS011;20422;53.014;8.886;2022-08-21T10:53:03;7.68;;;2.00;;
34144;SDS011;20422;53.014;8.886;2022-08-21T10:58:19;8.25;;;1.73;;
34144;SDS011;20422;53.014;8.886;2022-08-21T11:01:42;10.68;;;2.70;;
34144;SDS011;20422;53.014;8.886;2022-08-21T11:06:34;7.88;;;1.85;;
34144;SDS011;20422;53.014;8.886;2022-08-21T11:09:06;7.65;;;2.63;;
34144;SDS011;20422;53.014;8.886;2022-08-21T11:12:07;5.90;;;2.10;;
34144;SDS011;20422;53.014;8.886;2022-08-21T11:14:54;11.40;;;1.95;;
34144;SDS011;20422;53.014;8.886;2022-08-21T11:17:30;6.75;;;1.58;;
34144;SDS011;20422;53.014;8.886;2022-08-21T11:22:41;8.75;;;1.85;;
34144;SDS011;20422;53.014;8.886;2022-08-21T11:25:22;7.15;;;2.25;;
34144;SDS011;20422;53.014;8.886;2022-08-21T11:27:58;6.43;;;2.00;;
34144;SDS011;20422;53.014;8.886;2022-08-21T11:30:40;7.13;;;1.88;;
34144;SDS011;20422;53.014;8.886;2022-08-21T11:33:30;10.63;;;1.83;;
34144;SDS011;20422;53.014;8.886;2022-08-21T11:36:46;7.50;;;2.15;;
34144;SDS011;20422;53.014;8.886;2022-08-21T11:39:24;4.47;;;1.77;;
34144;SDS011;20422;53.014;8.886;2022-08-21T11:42:12;3.70;;;1.55;;
34144;SDS011;20422;53.014;8.886;2022-08-21T11:47:50;4.28;;;1.77;;
34144;SDS011;20422;53.014;8.886;2022-08-21T11:50:18;13.68;;;2.13;;
34144;SDS011;20422;53.014;8.886;2022-08-21T11:52:50;7.18;;;2.30;;
34144;SDS011;20422;53.014;8.886;2022-08-21T11:58:29;4.57;;;1.45;;
34144;SDS011;20422;53.014;8.886;2022-08-21T12:01:05;9.70;;;2.13;;
34144;SDS011;20422;53.014;8.886;2022-08-21T12:03:40;5.25;;;1.85;;
34144;SDS011;20422;53.014;8.886;2022-08-21T12:06:15;7.70;;;2.15;;
34144;SDS011;20422;53.014;8.886;2022-08-21T12:08:59;7.82;;;1.92;;
34144;SDS011;20422;53.014;8.886;2022-08-21T12:11:29;8.50;;;1.95;;
34144;SDS011;20422;53.014;8.886;2022-08-21T12:14:14;8.65;;;2.00;;
34144;SDS011;20422;53.014;8.886;2022-08-21T12:16:42;6.07;;;1.65;;
34144;SDS011;20422;53.014;8.886;2022-08-21T12:19:11;6.00;;;2.05;;
34144;SDS011;20422;53.014;8.886;2022-08-21T12:24:19;5.50;;;1.70;;
34144;SDS011;20422;53.014;8.886;2022-08-21T12:26:58;6.53;;;1.35;;
34144;SDS011;20422;53.014;8.886;2022-08-21T12:29:33;4.75;;;1.50;;
34144;SDS011;20422;53.014;8.886;2022-08-21T12:34:44;3.63;;;1.85;;
34144;SDS011;20422;53.014;8.886;2022-08-21T12:39:53;5.22;;;1.92;;
34144;SDS011;20422;53.014;8.886;2022-08-21T12:42:23;4.75;;;2.20;;
34144;SDS011;20422;53.014;8.886;2022-08-21T12:44:55;6.90;;;2.08;;
34144;SDS011;20422;53.014;8.886;2022-08-21T12:50:08;5.55;;;1.85;;
34144;SDS011;20422;53.014;8.886;2022-08-21T12:52:43;4.88;;;1.67;;
34144;SDS011;20422;53.014;8.886;2022-08-21T12:55:14;6.55;;;1.90;;
34144;SDS011;20422;53.014;8.886;2022-08-21T12:57:41;7.78;;;1.33;;
34144;SDS011;20422;53.014;8.886;2022-08-21T13:00:08;11.80;;;1.95;;
34144;SDS011;20422;53.014;8.886;2022-08-21T13:02:46;12.85;;;1.90;;
34144;SDS011;20422;53.014;8.886;2022-08-21T13:05:18;7.82;;;1.90;;
34144;SDS011;20422;53.014;8.886;2022-08-21T13:08:06;6.05;;;1.90;;
34144;SDS011;20422;53.014;8.886;2022-08-21T13:10:36;6.78;;;2.03;;
34144;SDS011;20422;53.014;8.886;2022-08-21T13:13:06;8.35;;;1.63;;
34144;SDS011;20422;53.014;8.886;2022-08-21T13:15:37;6.65;;;1.95;;
34144;SDS011;20422;53.014;8.886;2022-08-21T13:18:06;4.07;;;1.90;;
34144;SDS011;20422;53.014;8.886;2022-08-21T13:20:38;9.32;;;1.77;;
34144;SDS011;20422;53.014;8.886;2022-08-21T13:23:16;4.72;;;1.77;;
34144;SDS011;20422;53.014;8.886;2022-08-21T13:25:47;5.97;;;1.55;;
34144;SDS011;20422;53.014;8.886;2022-08-21T13:28:13;3.70;;;1.65;;
34144;SDS011;20422;53.014;8.886;2022-08-21T13:30:44;5.43;;;1.83;;
34144;SDS011;20422;53.014;8.886;2022-08-21T13:33:19;4.68;;;1.77;;
34144;SDS011;20422;53.014;8.886;2022-08-21T13:38:24;4.68;;;1.85;;
34144;SDS011;20422;53.014;8.886;2022-08-21T13:41:04;9.27;;;1.85;;
34144;SDS011;20422;53.014;8.886;2022-08-21T13:44:03;4.78;;;1.50;;
34144;SDS011;20422;53.014;8.886;2022-08-21T13:46:32;6.13;;;2.55;;
34144;SDS011;20422;53.014;8.886;2022-08-21T13:49:02;5.07;;;2.05;;
34144;SDS011;20422;53.014;8.886;2022-08-21T13:51:31;6.45;;;2.10;;
34144;SDS011;20422;53.014;8.886;2022-08-21T13:53:59;6.50;;;1.77;;
34144;SDS011;20422;53.014;8.886;2022-08-21T13:56:30;7.07;;;1.65;;
34144;SDS011;20422;53.014;8.886;2022-08-21T13:59:00;4.43;;;1.60;;
34144;SDS011;20422;53.014;8.886;2022-08-21T14:01:38;3.95;;;2.20;;
34144;SDS011;20422;53.014;8.886;2022-08-21T14:04:39;9.45;;;1.95;;
34144;SDS011;20422;53.014;8.886;2022-08-21T14:07:01;7.13;;;1.73;;
34144;SDS011;20422;53.014;8.886;2022-08-21T14:09:45;3.25;;;1.77;;
34144;SDS011;20422;53.014;8.886;2022-08-21T14:12:19;3.42;;;1.45;;
34144;SDS011;20422;53.014;8.886;2022-08-21T14:14:51;7.53;;;1.63;;
34144;SDS011;20422;53.014;8.886;2022-08-21T14:17:35;3.05;;;1.50;;
34144;SDS011;20422;53.014;8.886;2022-08-21T14:20:05;5.75;;;1.75;;
34144;SDS011;20422;53.014;8.886;2022-08-21T14:27:48;5.15;;;1.70;;
34144;SDS011;20422;53.014;8.886;2022-08-21T14:30:22;6.53;;;1.90;;
34144;SDS011;20422;53.014;8.886;2022-08-21T14:32:54;5.28;;;1.65;;
34144;SDS011;20422;53.014;8.886;2022-08-21T14:35:21;4.93;;;1.90;;
34144;SDS011;20422;53.014;8.886;2022-08-21T14:37:48;6.57;;;2.10;;
34144;SDS011;20422;53.014;8.886;2022-08-21T14:40:24;5.93;;;1.80;;
34144;SDS011;20422;53.014;8.886;2022-08-21T14:43:05;4.18;;;1.70;;
34144;SDS011;20422;53.014;8.886;2022-08-21T14:46:17;4.60;;;1.60;;
34144;SDS011;20422;53.014;8.886;2022-08-21T14:48:48;6.03;;;1.80;;
34144;SDS011;20422;53.014;8.886;2022-08-21T14:51:14;4.38;;;1.80;;
34144;SDS011;20422;53.014;8.886;2022-08-21T14:53:39;6.63;;;2.05;;
34144;SDS011;20422;53.014;8.886;2022-08-21T14:56:05;6.32;;;1.98;;
34144;SDS011;20422;53.014;8.886;2022-08-21T14:58:35;8.02;;;1.73;;
34144;SDS011;20422;53.014;8.886;2022-08-21T15:01:06;3.80;;;1.60;;
34144;SDS011;20422;53.014;8.886;2022-08-21T15:03:33;3.72;;;1.63;;
34144;SDS011;20422;53.014;8.886;2022-08-21T15:05:59;4.63;;;1.95;;
34144;SDS011;20422;53.014;8.886;2022-08-21T15:08:25;6.97;;;2.22;;
34144;SDS011;20422;53.014;8.886;2022-08-21T15:10:51;9.55;;;2.10;;
34144;SDS011;20422;53.014;8.886;2022-08-21T15:13:20;4.82;;;1.98;;
34144;SDS011;20422;53.014;8.886;2022-08-21T15:15:55;2.80;;;1.70;;
34144;SDS011;20422;53.014;8.886;2022-08-21T15:18:33;4.25;;;1.73;;
34144;SDS011;20422;53.014;8.886;2022-08-21T15:20:58;6.75;;;1.88;;
34144;SDS011;20422;53.014;8.886;2022-08-21T15:23:24;3.70;;;1.83;;
34144;SDS011;20422;53.014;8.886;2022-08-21T15:25:52;6.93;;;1.80;;
34144;SDS011;20422;53.014;8.886;2022-08-21T15:28:36;2.97;;;2.55;;
34144;SDS011;20422;53.014;8.886;2022-08-21T15:31:59;6.05;;;2.33;;
34144;SDS011;20422;53.014;8.886;2022-08-21T15:34:27;7.95;;;2.08;;
34144;SDS011;20422;53.014;8.886;2022-08-21T15:36:54;6.22;;;1.90;;
34144;SDS011;20422;53.014;8.886;2022-08-21T15:39:21;14.15;;;2.30;;
34144;SDS011;20422;53.014;8.886;2022-08-21T15:41:48;6.38;;;2.25;;
34144;SDS011;20422;53.014;8.886;2022-08-21T15:44:40;6.70;;;3.13;;
34144;SDS011;20422;53.014;8.886;2022-08-21T15:50:18;4.50;;;2.00;;
34144;SDS011;20422;53.014;8.886;2022-08-21T15:52:44;4.60;;;2.30;;
34144;SDS011;20422;53.014;8.886;2022-08-21T15:55:09;6.68;;;2.47;;
34144;SDS011;20422;53.014;8.886;2022-08-21T15:57:36;4.05;;;2.33;;
34144;SDS011;20422;53.014;8.886;2022-08-21T16:00:05;6.13;;;1.70;;
34144;SDS011;20422;53.014;8.886;2022-08-21T16:02:38;5.95;;;1.77;;
34144;SDS011;20422;53.014;8.886;2022-08-21T16:05:05;8.23;;;2.47;;
34144;SDS011;20422;53.014;8.886;2022-08-21T16:07:41;3.85;;;1.92;;
34144;SDS011;20422;53.014;8.886;2022-08-21T16:10:19;2.58;;;1.48;;
34144;SDS011;20422;53.014;8.886;2022-08-21T16:12:47;7.68;;;2.50;;
34144;SDS011;20422;53.014;8.886;2022-08-21T16:16:08;3.28;;;1.33;;
34144;SDS011;20422;53.014;8.886;2022-08-21T16:18:46;6.93;;;2.13;;
34144;SDS011;20422;53.014;8.886;2022-08-21T16:25:20;3.30;;;2.10;;
34144;SDS011;20422;53.014;8.886;2022-08-21T16:30:48;3.80;;;1.60;;
34144;SDS011;20422;53.014;8.886;2022-08-21T16:33:39;3.50;;;1.35;;